CST,Max TemperatureF,Mean TemperatureF,Min TemperatureF,Max Dew PointF,MeanDew PointF,Min DewpointF,Max Humidity, Mean Humidity, Min Humidity, Max Sea Level PressureIn, Mean Sea Level PressureIn, Min Sea Level PressureIn, Max VisibilityMiles, Mean VisibilityMiles, Min VisibilityMiles, Max Wind SpeedMPH, Mean Wind SpeedMPH, Max Gust SpeedMPH,PrecipitationIn, CloudCover, Events, WindDirDegrees
2012-11-1,77,60,44,52,45,37,82,61,32,30.09,30.02,29.98,10,10,3,8,2,,0.00,0,,161
2012-11-2,82,68,55,61,55,46,82,65,35,30.07,30.02,29.99,10,9,0,10,5,,0.00,1,,211
2012-11-3,75,68,60,63,57,54,83,76,57,30.14,30.09,30.04,10,6,0,13,5,16,0.00,3,,220
2012-11-4,,,,,,,,,,,,,,,,,,,,,,
2012-11-5,,,,,,,,,,,,,,,,,,,,,,
2012-11-6,,,,,,,,,,,,,,,,,,,,,,
2012-11-7,66,54,42,43,36,25,87,51,21,30.17,30.10,30.03,10,10,9,15,6,22,0.00,0,,353
2012-11-8,66,52,37,46,39,36,100,68,34,30.28,30.20,30.16,10,10,10,10,4,,0.00,0,,116
2012-11-9,73,58,44,54,47,39,94,69,38,30.26,30.18,30.13,10,10,10,14,6,,0.00,0,,157
2012-11-10,77,64,51,57,55,52,100,72,47,30.22,30.15,30.09,10,10,10,16,11,25,0.00,1,,152
2012-11-11,78,70,62,66,60,55,100,75,54,30.12,30.07,30.01,10,10,5,24,15,33,0.27,3,Thunderstorm,154
2012-11-12,55,53,51,54,52,50,100,97,88,30.35,30.24,30.14,10,10,7,23,10,33,0.06,8,,359
2012-11-13,,,,,,,,,,,,,,,,,,,,,,
2012-11-14,57,46,35,36,33,28,93,61,33,30.37,30.30,30.27,10,10,10,15,7,20,0.00,0,,355
2012-11-15,60,44,28,45,37,27,100,78,42,30.33,30.27,30.23,10,9,2,10,2,,0.00,0,,5
2012-11-16,62,48,33,45,37,32,100,75,37,30.35,30.30,30.26,10,9,3,13,4,17,0.00,0,,13
2012-11-17,66,49,32,41,36,32,100,71,30,30.39,30.33,30.29,10,10,5,9,2,,0.00,0,,12
2012-11-18,66,50,33,43,38,30,100,71,35,30.35,30.30,30.25,10,10,5,9,2,,0.00,0,,70
2012-11-19,69,53,37,48,42,36,100,72,31,30.31,30.24,30.18,10,10,7,7,1,,0.00,0,,295
2012-11-20,71,58,44,50,46,41,100,73,35,30.23,30.18,30.13,10,10,2,8,1,,0.00,2,,323
2012-11-21,73,58,42,52,45,43,100,74,35,30.24,30.19,30.16,10,10,10,12,2,16,0.00,0,,10
2012-11-22,73,56,39,54,44,37,100,69,33,30.24,30.18,30.14,10,10,5,10,2,,0.00,0,,176
2012-11-23,64,53,39,55,48,37,100,81,48,30.29,30.24,30.18,10,10,5,12,3,,0.00,4,,340
2012-11-24,53,42,30,39,30,25,93,65,33,30.37,30.27,30.18,10,10,9,12,6,16,0.00,0,,1
2012-11-25,64,46,28,43,32,27,100,62,28,30.20,30.12,30.05,10,10,10,10,3,,0.00,0,,168
2012-11-26,68,59,50,64,58,43,100,89,76,30.08,30.05,30.01,10,10,9,14,9,21,0.34,5,Thunderstorm,163
2012-11-27,66,52,35,64,46,34,100,93,87,30.34,30.23,30.02,10,8,1,17,9,26,0.36,6,Thunderstorm,10
2012-11-28,57,42,28,41,34,27,100,79,33,30.47,30.38,30.34,10,8,2,12,2,17,0.00,0,,30
2012-11-29,64,48,32,39,34,28,100,66,30,30.36,30.29,30.22,10,10,10,10,3,,0.00,0,,142
2012-11-30,71,56,42,54,48,41,100,78,43,30.28,30.22,30.17,10,10,2,10,5,,0.00,0,,152